sensor_id;sensor_type;location;lat;lon;timestamp;P1;durP1;ratioP1;P2;durP2;ratioP2
42832;SDS011;64089;51.478;5.692;2023-04-06T00:01:07;23.65;;;9.90;;
42832;SDS011;64089;51.478;5.692;2023-04-06T00:03:33;16.10;;;8.63;;
42832;SDS011;64089;51.478;5.692;2023-04-06T00:05:58;19.20;;;8.25;;
42832;SDS011;64089;51.478;5.692;2023-04-06T00:08:25;22.63;;;8.50;;
42832;SDS011;64089;51.478;5.692;2023-04-06T00:10:51;20.05;;;9.02;;
42832;SDS011;64089;51.478;5.692;2023-04-06T00:13:16;22.50;;;8.77;;
42832;SDS011;64089;51.478;5.692;2023-04-06T00:15:42;18.80;;;7.00;;
42832;SDS011;64089;51.478;5.692;2023-04-06T00:18:07;25.13;;;9.45;;
42832;SDS011;64089;51.478;5.692;2023-04-06T00:20:33;18.13;;;8.05;;
42832;SDS011;64089;51.478;5.692;2023-04-06T00:22:59;17.92;;;7.97;;
42832;SDS011;64089;51.478;5.692;2023-04-06T00:25:25;15.90;;;8.27;;
42832;SDS011;64089;51.478;5.692;2023-04-06T00:27:50;19.05;;;7.95;;
42832;SDS011;64089;51.478;5.692;2023-04-06T00:30:16;20.85;;;8.38;;
42832;SDS011;64089;51.478;5.692;2023-04-06T00:32:42;16.42;;;7.72;;
42832;SDS011;64089;51.478;5.692;2023-04-06T00:35:08;13.48;;;7.03;;
42832;SDS011;64089;51.478;5.692;2023-04-06T00:37:33;20.63;;;8.02;;
42832;SDS011;64089;51.478;5.692;2023-04-06T00:39:59;16.23;;;7.65;;
42832;SDS011;64089;51.478;5.692;2023-04-06T00:42:25;17.85;;;7.63;;
42832;SDS011;64089;51.478;5.692;2023-04-06T00:44:54;16.75;;;7.63;;
42832;SDS011;64089;51.478;5.692;2023-04-06T00:47:21;22.10;;;8.52;;
42832;SDS011;64089;51.478;5.692;2023-04-06T00:49:47;15.88;;;8.02;;
42832;SDS011;64089;51.478;5.692;2023-04-06T00:52:13;20.77;;;8.60;;
42832;SDS011;64089;51.478;5.692;2023-04-06T00:54:39;19.92;;;8.35;;
42832;SDS011;64089;51.478;5.692;2023-04-06T00:57:05;26.48;;;8.63;;
42832;SDS011;64089;51.478;5.692;2023-04-06T00:59:31;17.77;;;7.68;;
42832;SDS011;64089;51.478;5.692;2023-04-06T01:01:57;17.33;;;8.07;;
42832;SDS011;64089;51.478;5.692;2023-04-06T01:04:23;20.73;;;8.45;;
42832;SDS011;64089;51.478;5.692;2023-04-06T01:06:49;19.00;;;8.48;;
42832;SDS011;64089;51.478;5.692;2023-04-06T01:09:15;17.25;;;7.45;;
42832;SDS011;64089;51.478;5.692;2023-04-06T01:11:41;16.38;;;7.55;;
42832;SDS011;64089;51.478;5.692;2023-04-06T01:14:07;21.13;;;8.70;;
42832;SDS011;64089;51.478;5.692;2023-04-06T01:16:33;18.10;;;7.25;;
42832;SDS011;64089;51.478;5.692;2023-04-06T01:18:59;19.92;;;8.30;;
42832;SDS011;64089;51.478;5.692;2023-04-06T01:21:25;14.90;;;8.00;;
42832;SDS011;64089;51.478;5.692;2023-04-06T01:23:50;20.23;;;8.00;;
42832;SDS011;64089;51.478;5.692;2023-04-06T01:26:16;20.63;;;8.32;;
42832;SDS011;64089;51.478;5.692;2023-04-06T01:28:41;17.60;;;8.00;;
42832;SDS011;64089;51.478;5.692;2023-04-06T01:31:09;19.42;;;7.70;;
42832;SDS011;64089;51.478;5.692;2023-04-06T01:33:35;13.77;;;6.78;;
42832;SDS011;64089;51.478;5.692;2023-04-06T01:36:01;17.40;;;7.60;;
42832;SDS011;64089;51.478;5.692;2023-04-06T01:38:28;17.25;;;7.43;;
42832;SDS011;64089;51.478;5.692;2023-04-06T01:40:53;17.98;;;8.23;;
42832;SDS011;64089;51.478;5.692;2023-04-06T01:43:20;22.05;;;8.20;;
42832;SDS011;64089;51.478;5.692;2023-04-06T01:45:45;12.68;;;6.53;;
42832;SDS011;64089;51.478;5.692;2023-04-06T01:48:11;16.40;;;8.07;;
42832;SDS011;64089;51.478;5.692;2023-04-06T01:50:36;17.05;;;7.63;;
42832;SDS011;64089;51.478;5.692;2023-04-06T01:53:02;15.10;;;7.22;;
42832;SDS011;64089;51.478;5.692;2023-04-06T01:55:27;18.65;;;7.47;;
42832;SDS011;64089;51.478;5.692;2023-04-06T01:57:53;18.30;;;7.90;;
42832;SDS011;64089;51.478;5.692;2023-04-06T02:00:18;19.88;;;7.80;;
42832;SDS011;64089;51.478;5.692;2023-04-06T02:02:44;18.00;;;8.23;;
42832;SDS011;64089;51.478;5.692;2023-04-06T02:05:10;21.13;;;8.77;;
42832;SDS011;64089;51.478;5.692;2023-04-06T02:07:36;19.83;;;8.15;;
42832;SDS011;64089;51.478;5.692;2023-04-06T02:10:01;20.55;;;9.13;;
42832;SDS011;64089;51.478;5.692;2023-04-06T02:12:28;20.30;;;8.95;;
42832;SDS011;64089;51.478;5.692;2023-04-06T02:14:54;15.13;;;7.60;;
42832;SDS011;64089;51.478;5.692;2023-04-06T02:17:19;23.33;;;9.00;;
42832;SDS011;64089;51.478;5.692;2023-04-06T02:19:45;22.05;;;7.90;;
42832;SDS011;64089;51.478;5.692;2023-04-06T02:22:11;17.08;;;8.10;;
42832;SDS011;64089;51.478;5.692;2023-04-06T02:24:36;16.35;;;7.65;;
42832;SDS011;64089;51.478;5.692;2023-04-06T02:27:02;19.30;;;7.78;;
42832;SDS011;64089;51.478;5.692;2023-04-06T02:29:27;21.17;;;8.05;;
42832;SDS011;64089;51.478;5.692;2023-04-06T02:31:53;16.88;;;8.05;;
42832;SDS011;64089;51.478;5.692;2023-04-06T02:34:19;27.45;;;8.43;;
42832;SDS011;64089;51.478;5.692;2023-04-06T02:36:44;23.48;;;8.10;;
42832;SDS011;64089;51.478;5.692;2023-04-06T02:39:11;19.40;;;8.60;;
42832;SDS011;64089;51.478;5.692;2023-04-06T02:41:37;20.55;;;8.48;;
42832;SDS011;64089;51.478;5.692;2023-04-06T02:44:03;15.40;;;8.05;;
42832;SDS011;64089;51.478;5.692;2023-04-06T02:46:28;19.77;;;9.10;;
42832;SDS011;64089;51.478;5.692;2023-04-06T02:48:54;23.70;;;8.90;;
42832;SDS011;64089;51.478;5.692;2023-04-06T02:51:20;18.60;;;7.80;;
42832;SDS011;64089;51.478;5.692;2023-04-06T02:53:46;20.77;;;8.63;;
42832;SDS011;64089;51.478;5.692;2023-04-06T02:56:11;21.83;;;8.13;;
42832;SDS011;64089;51.478;5.692;2023-04-06T02:58:37;20.98;;;9.43;;
42832;SDS011;64089;51.478;5.692;2023-04-06T03:01:03;23.27;;;9.35;;
42832;SDS011;64089;51.478;5.692;2023-04-06T03:03:29;29.85;;;10.45;;
42832;SDS011;64089;51.478;5.692;2023-04-06T03:05:55;25.05;;;9.93;;
42832;SDS011;64089;51.478;5.692;2023-04-06T03:08:23;22.15;;;10.00;;
42832;SDS011;64089;51.478;5.692;2023-04-06T03:10:49;23.63;;;10.10;;
42832;SDS011;64089;51.478;5.692;2023-04-06T03:13:15;24.17;;;9.77;;
42832;SDS011;64089;51.478;5.692;2023-04-06T03:15:41;21.20;;;9.48;;
42832;SDS011;64089;51.478;5.692;2023-04-06T03:18:06;27.55;;;10.02;;
42832;SDS011;64089;51.478;5.692;2023-04-06T03:20:32;28.67;;;10.80;;
42832;SDS011;64089;51.478;5.692;2023-04-06T03:22:57;22.75;;;9.88;;
42832;SDS011;64089;51.478;5.692;2023-04-06T03:25:23;24.25;;;10.05;;
42832;SDS011;64089;51.478;5.692;2023-04-06T03:27:49;24.17;;;10.13;;
42832;SDS011;64089;51.478;5.692;2023-04-06T03:30:14;23.70;;;10.40;;
42832;SDS011;64089;51.478;5.692;2023-04-06T03:32:42;22.25;;;9.45;;
42832;SDS011;64089;51.478;5.692;2023-04-06T03:35:08;20.33;;;9.43;;
42832;SDS011;64089;51.478;5.692;2023-04-06T03:37:34;22.85;;;10.52;;
42832;SDS011;64089;51.478;5.692;2023-04-06T03:40:00;29.73;;;11.05;;
42832;SDS011;64089;51.478;5.692;2023-04-06T03:42:26;26.73;;;11.65;;
42832;SDS011;64089;51.478;5.692;2023-04-06T03:44:51;21.08;;;10.65;;
42832;SDS011;64089;51.478;5.692;2023-04-06T03:47:17;27.20;;;10.32;;
42832;SDS011;64089;51.478;5.692;2023-04-06T03:49:43;24.23;;;11.68;;
42832;SDS011;64089;51.478;5.692;2023-04-06T03:52:08;27.48;;;10.70;;
42832;SDS011;64089;51.478;5.692;2023-04-06T03:54:34;25.60;;;10.35;;
42832;SDS011;64089;51.478;5.692;2023-04-06T03:57:01;23.40;;;9.77;;
42832;SDS011;64089;51.478;5.692;2023-04-06T03:59:26;33.75;;;10.57;;
42832;SDS011;64089;51.478;5.692;2023-04-06T04:01:52;21.50;;;10.60;;
42832;SDS011;64089;51.478;5.692;2023-04-06T04:04:18;28.85;;;10.18;;
42832;SDS011;64089;51.478;5.692;2023-04-06T04:06:43;22.20;;;9.85;;
42832;SDS011;64089;51.478;5.692;2023-04-06T04:09:09;25.77;;;10.02;;
42832;SDS011;64089;51.478;5.692;2023-04-06T04:11:35;27.83;;;10.80;;
42832;SDS011;64089;51.478;5.692;2023-04-06T04:14:00;24.17;;;10.05;;
42832;SDS011;64089;51.478;5.692;2023-04-06T04:16:26;28.77;;;11.77;;
42832;SDS011;64089;51.478;5.692;2023-04-06T04:18:51;25.05;;;10.63;;
42832;SDS011;64089;51.478;5.692;2023-04-06T04:21:17;30.50;;;12.80;;
42832;SDS011;64089;51.478;5.692;2023-04-06T04:23:42;24.83;;;11.05;;
42832;SDS011;64089;51.478;5.692;2023-04-06T04:26:08;27.35;;;11.40;;
42832;SDS011;64089;51.478;5.692;2023-04-06T04:28:34;26.48;;;11.13;;
42832;SDS011;64089;51.478;5.692;2023-04-06T04:31:00;22.83;;;11.80;;
42832;SDS011;64089;51.478;5.692;2023-04-06T04:33:25;25.30;;;10.68;;
42832;SDS011;64089;51.478;5.692;2023-04-06T04:35:51;23.48;;;10.32;;
42832;SDS011;64089;51.478;5.692;2023-04-06T04:38:16;24.00;;;11.23;;
42832;SDS011;64089;51.478;5.692;2023-04-06T04:40:42;26.35;;;11.05;;
42832;SDS011;64089;51.478;5.692;2023-04-06T04:43:08;31.77;;;10.23;;
42832;SDS011;64089;51.478;5.692;2023-04-06T04:45:34;27.63;;;12.18;;
42832;SDS011;64089;51.478;5.692;2023-04-06T04:47:59;23.63;;;10.90;;
42832;SDS011;64089;51.478;5.692;2023-04-06T04:50:25;22.60;;;11.07;;
42832;SDS011;64089;51.478;5.692;2023-04-06T04:52:51;22.20;;;11.05;;
42832;SDS011;64089;51.478;5.692;2023-04-06T04:55:16;29.85;;;11.70;;
42832;SDS011;64089;51.478;5.692;2023-04-06T04:57:42;25.10;;;11.15;;
42832;SDS011;64089;51.478;5.692;2023-04-06T05:00:08;25.30;;;11.18;;
42832;SDS011;64089;51.478;5.692;2023-04-06T05:02:34;26.35;;;11.02;;
42832;SDS011;64089;51.478;5.692;2023-04-06T05:05:00;25.00;;;10.75;;
42832;SDS011;64089;51.478;5.692;2023-04-06T05:07:26;21.95;;;10.73;;
42832;SDS011;64089;51.478;5.692;2023-04-06T05:09:51;31.15;;;10.80;;
42832;SDS011;64089;51.478;5.692;2023-04-06T05:12:18;23.58;;;10.73;;
42832;SDS011;64089;51.478;5.692;2023-04-06T05:14:44;23.48;;;11.02;;
42832;SDS011;64089;51.478;5.692;2023-04-06T05:17:10;28.05;;;11.35;;
42832;SDS011;64089;51.478;5.692;2023-04-06T05:19:36;29.13;;;12.10;;
42832;SDS011;64089;51.478;5.692;2023-04-06T05:22:01;25.67;;;10.43;;
42832;SDS011;64089;51.478;5.692;2023-04-06T05:24:27;23.65;;;11.48;;
42832;SDS011;64089;51.478;5.692;2023-04-06T05:26:52;22.40;;;10.90;;
42832;SDS011;64089;51.478;5.692;2023-04-06T05:29:18;29.75;;;10.80;;
42832;SDS011;64089;51.478;5.692;2023-04-06T05:31:45;26.42;;;11.63;;
42832;SDS011;64089;51.478;5.692;2023-04-06T05:34:10;24.33;;;10.43;;
42832;SDS011;64089;51.478;5.692;2023-04-06T05:36:37;30.05;;;11.18;;
42832;SDS011;64089;51.478;5.692;2023-04-06T05:39:03;28.52;;;11.65;;
42832;SDS011;64089;51.478;5.692;2023-04-06T05:41:28;35.20;;;12.43;;
42832;SDS011;64089;51.478;5.692;2023-04-06T05:43:54;27.02;;;11.77;;
42832;SDS011;64089;51.478;5.692;2023-04-06T05:46:20;23.05;;;11.45;;
42832;SDS011;64089;51.478;5.692;2023-04-06T05:48:46;24.75;;;11.60;;
42832;SDS011;64089;51.478;5.692;2023-04-06T05:51:11;24.20;;;11.55;;
42832;SDS011;64089;51.478;5.692;2023-04-06T05:53:37;30.48;;;12.25;;
42832;SDS011;64089;51.478;5.692;2023-04-06T05:56:03;26.17;;;11.13;;
42832;SDS011;64089;51.478;5.692;2023-04-06T05:58:29;27.50;;;12.35;;
42832;SDS011;64089;51.478;5.692;2023-04-06T06:00:58;29.20;;;12.10;;
42832;SDS011;64089;51.478;5.692;2023-04-06T06:03:25;22.42;;;10.43;;
42832;SDS011;64089;51.478;5.692;2023-04-06T06:05:50;29.98;;;12.63;;
42832;SDS011;64089;51.478;5.692;2023-04-06T06:08:16;27.98;;;11.75;;
42832;SDS011;64089;51.478;5.692;2023-04-06T06:10:42;32.70;;;10.88;;
42832;SDS011;64089;51.478;5.692;2023-04-06T06:13:08;26.10;;;11.15;;
42832;SDS011;64089;51.478;5.692;2023-04-06T06:15:33;24.38;;;10.70;;
42832;SDS011;64089;51.478;5.692;2023-04-06T06:17:59;26.55;;;10.93;;
42832;SDS011;64089;51.478;5.692;2023-04-06T06:20:25;27.75;;;11.43;;
42832;SDS011;64089;51.478;5.692;2023-04-06T06:22:51;19.65;;;9.80;;
42832;SDS011;64089;51.478;5.692;2023-04-06T06:25:17;26.58;;;10.52;;
42832;SDS011;64089;51.478;5.692;2023-04-06T06:27:42;35.25;;;11.98;;
42832;SDS011;64089;51.478;5.692;2023-04-06T06:30:08;23.95;;;11.02;;
42832;SDS011;64089;51.478;5.692;2023-04-06T06:32:34;21.45;;;9.82;;
42832;SDS011;64089;51.478;5.692;2023-04-06T06:35:00;25.60;;;10.85;;
42832;SDS011;64089;51.478;5.692;2023-04-06T06:37:25;19.13;;;10.07;;
42832;SDS011;64089;51.478;5.692;2023-04-06T06:39:51;23.77;;;10.65;;
42832;SDS011;64089;51.478;5.692;2023-04-06T06:42:16;24.55;;;10.65;;
42832;SDS011;64089;51.478;5.692;2023-04-06T06:44:42;25.13;;;11.18;;
42832;SDS011;64089;51.478;5.692;2023-04-06T06:47:08;24.20;;;10.82;;
42832;SDS011;64089;51.478;5.692;2023-04-06T06:49:33;22.60;;;11.65;;
42832;SDS011;64089;51.478;5.692;2023-04-06T06:51:59;25.42;;;11.25;;
42832;SDS011;64089;51.478;5.692;2023-04-06T06:54:24;26.40;;;10.25;;
42832;SDS011;64089;51.478;5.692;2023-04-06T06:56:50;22.55;;;10.75;;
42832;SDS011;64089;51.478;5.692;2023-04-06T06:59:16;24.58;;;11.27;;
42832;SDS011;64089;51.478;5.692;2023-04-06T07:01:41;25.55;;;10.20;;
42832;SDS011;64089;51.478;5.692;2023-04-06T07:04:07;24.38;;;10.23;;
42832;SDS011;64089;51.478;5.692;2023-04-06T07:06:35;22.52;;;11.38;;
42832;SDS011;64089;51.478;5.692;2023-04-06T07:09:01;22.83;;;9.65;;
42832;SDS011;64089;51.478;5.692;2023-04-06T07:11:28;21.45;;;10.95;;
42832;SDS011;64089;51.478;5.692;2023-04-06T07:13:54;22.70;;;10.45;;
42832;SDS011;64089;51.478;5.692;2023-04-06T07:16:20;25.75;;;10.65;;
42832;SDS011;64089;51.478;5.692;2023-04-06T07:18:46;23.67;;;10.25;;
42832;SDS011;64089;51.478;5.692;2023-04-06T07:21:12;29.73;;;10.30;;
42832;SDS011;64089;51.478;5.692;2023-04-06T07:23:38;22.73;;;10.27;;
42832;SDS011;64089;51.478;5.692;2023-04-06T07:26:03;27.42;;;11.52;;
42832;SDS011;64089;51.478;5.692;2023-04-06T07:28:29;26.63;;;10.05;;
42832;SDS011;64089;51.478;5.692;2023-04-06T07:30:55;23.58;;;10.73;;
42832;SDS011;64089;51.478;5.692;2023-04-06T07:33:21;19.52;;;10.13;;
42832;SDS011;64089;51.478;5.692;2023-04-06T07:35:46;23.40;;;9.57;;
42832;SDS011;64089;51.478;5.692;2023-04-06T07:38:12;23.88;;;10.02;;
42832;SDS011;64089;51.478;5.692;2023-04-06T07:40:38;28.35;;;11.10;;
42832;SDS011;64089;51.478;5.692;2023-04-06T07:43:04;24.40;;;10.20;;
42832;SDS011;64089;51.478;5.692;2023-04-06T07:45:29;58.20;;;24.15;;
42832;SDS011;64089;51.478;5.692;2023-04-06T07:47:55;90.85;;;38.25;;
42832;SDS011;64089;51.478;5.692;2023-04-06T07:50:21;118.55;;;49.50;;
42832;SDS011;64089;51.478;5.692;2023-04-06T07:52:46;70.18;;;30.35;;
42832;SDS011;64089;51.478;5.692;2023-04-06T07:55:12;28.20;;;10.85;;
42832;SDS011;64089;51.478;5.692;2023-04-06T07:57:37;25.58;;;8.88;;
42832;SDS011;64089;51.478;5.692;2023-04-06T08:00:03;19.70;;;9.07;;
42832;SDS011;64089;51.478;5.692;2023-04-06T08:02:31;26.95;;;10.05;;
42832;SDS011;64089;51.478;5.692;2023-04-06T08:04:56;22.40;;;10.23;;
42832;SDS011;64089;51.478;5.692;2023-04-06T08:07:22;18.73;;;8.57;;
42832;SDS011;64089;51.478;5.692;2023-04-06T08:09:48;18.02;;;9.18;;
42832;SDS011;64089;51.478;5.692;2023-04-06T08:12:14;18.30;;;9.20;;
42832;SDS011;64089;51.478;5.692;2023-04-06T08:14:39;22.92;;;9.10;;
42832;SDS011;64089;51.478;5.692;2023-04-06T08:17:05;20.63;;;9.45;;
42832;SDS011;64089;51.478;5.692;2023-04-06T08:19:31;22.17;;;10.13;;
42832;SDS011;64089;51.478;5.692;2023-04-06T08:21:57;19.45;;;9.52;;
42832;SDS011;64089;51.478;5.692;2023-04-06T08:24:22;21.98;;;9.15;;
42832;SDS011;64089;51.478;5.692;2023-04-06T08:26:48;25.08;;;9.85;;
42832;SDS011;64089;51.478;5.692;2023-04-06T08:29:13;24.90;;;9.02;;
42832;SDS011;64089;51.478;5.692;2023-04-06T08:31:39;21.85;;;8.93;;
42832;SDS011;64089;51.478;5.692;2023-04-06T08:34:05;28.85;;;9.68;;
42832;SDS011;64089;51.478;5.692;2023-04-06T08:36:31;25.55;;;10.65;;
42832;SDS011;64089;51.478;5.692;2023-04-06T08:38:57;20.40;;;8.75;;
42832;SDS011;64089;51.478;5.692;2023-04-06T08:41:23;24.92;;;9.00;;
42832;SDS011;64089;51.478;5.692;2023-04-06T08:43:52;15.77;;;8.23;;
42832;SDS011;64089;51.478;5.692;2023-04-06T08:48:48;32.05;;;8.90;;
42832;SDS011;64089;51.478;5.692;2023-04-06T08:51:15;22.02;;;8.65;;
42832;SDS011;64089;51.478;5.692;2023-04-06T08:53:41;25.00;;;10.23;;
42832;SDS011;64089;51.478;5.692;2023-04-06T08:56:07;20.80;;;8.98;;
42832;SDS011;64089;51.478;5.692;2023-04-06T08:58:35;21.35;;;10.10;;
42832;SDS011;64089;51.478;5.692;2023-04-06T09:01:06;25.48;;;10.57;;
42832;SDS011;64089;51.478;5.692;2023-04-06T09:03:34;21.05;;;10.00;;
42832;SDS011;64089;51.478;5.692;2023-04-06T09:06:04;20.10;;;9.30;;
42832;SDS011;64089;51.478;5.692;2023-04-06T09:08:30;21.73;;;8.90;;
42832;SDS011;64089;51.478;5.692;2023-04-06T09:10:57;23.80;;;9.32;;
42832;SDS011;64089;51.478;5.692;2023-04-06T09:13:22;23.17;;;9.32;;
42832;SDS011;64089;51.478;5.692;2023-04-06T09:15:57;20.02;;;9.25;;
42832;SDS011;64089;51.478;5.692;2023-04-06T09:18:31;20.80;;;9.55;;
42832;SDS011;64089;51.478;5.692;2023-04-06T09:21:01;21.67;;;8.85;;
42832;SDS011;64089;51.478;5.692;2023-04-06T09:23:28;34.03;;;8.77;;
42832;SDS011;64089;51.478;5.692;2023-04-06T09:26:11;24.50;;;9.48;;
42832;SDS011;64089;51.478;5.692;2023-04-06T09:31:14;23.27;;;8.60;;
42832;SDS011;64089;51.478;5.692;2023-04-06T09:33:41;24.30;;;10.07;;
42832;SDS011;64089;51.478;5.692;2023-04-06T09:36:09;20.90;;;9.32;;
42832;SDS011;64089;51.478;5.692;2023-04-06T09:38:51;22.25;;;9.15;;
42832;SDS011;64089;51.478;5.692;2023-04-06T09:41:28;18.00;;;7.85;;
42832;SDS011;64089;51.478;5.692;2023-04-06T09:44:11;16.98;;;7.82;;
42832;SDS011;64089;51.478;5.692;2023-04-06T09:46:38;20.17;;;9.25;;
42832;SDS011;64089;51.478;5.692;2023-04-06T09:49:05;25.48;;;11.45;;
42832;SDS011;64089;51.478;5.692;2023-04-06T09:56:33;17.42;;;8.45;;
42832;SDS011;64089;51.478;5.692;2023-04-06T09:59:10;22.52;;;8.38;;
42832;SDS011;64089;51.478;5.692;2023-04-06T10:01:43;26.58;;;8.45;;
42832;SDS011;64089;51.478;5.692;2023-04-06T10:07:08;28.98;;;13.88;;
42832;SDS011;64089;51.478;5.692;2023-04-06T10:09:36;26.60;;;13.95;;
42832;SDS011;64089;51.478;5.692;2023-04-06T10:12:03;47.28;;;19.77;;
42832;SDS011;64089;51.478;5.692;2023-04-06T10:14:35;27.25;;;12.63;;
42832;SDS011;64089;51.478;5.692;2023-04-06T10:17:02;16.08;;;7.05;;
42832;SDS011;64089;51.478;5.692;2023-04-06T10:19:31;13.05;;;6.47;;
42832;SDS011;64089;51.478;5.692;2023-04-06T10:22:09;13.60;;;6.20;;
42832;SDS011;64089;51.478;5.692;2023-04-06T10:24:40;20.08;;;7.40;;
42832;SDS011;64089;51.478;5.692;2023-04-06T10:27:06;18.25;;;7.18;;
42832;SDS011;64089;51.478;5.692;2023-04-06T10:29:47;10.85;;;5.93;;
42832;SDS011;64089;51.478;5.692;2023-04-06T10:32:16;16.50;;;6.43;;
42832;SDS011;64089;51.478;5.692;2023-04-06T10:34:41;13.52;;;5.47;;
42832;SDS011;64089;51.478;5.692;2023-04-06T10:37:11;13.82;;;6.30;;
42832;SDS011;64089;51.478;5.692;2023-04-06T10:39:53;17.70;;;5.70;;
42832;SDS011;64089;51.478;5.692;2023-04-06T10:42:25;14.80;;;6.15;;
42832;SDS011;64089;51.478;5.692;2023-04-06T10:45:01;13.20;;;5.65;;
42832;SDS011;64089;51.478;5.692;2023-04-06T10:47:29;11.60;;;5.28;;
42832;SDS011;64089;51.478;5.692;2023-04-06T10:50:04;11.13;;;5.57;;
42832;SDS011;64089;51.478;5.692;2023-04-06T10:52:30;11.95;;;5.25;;
42832;SDS011;64089;51.478;5.692;2023-04-06T10:54:56;11.90;;;5.53;;
42832;SDS011;64089;51.478;5.692;2023-04-06T10:57:29;12.27;;;5.25;;
42832;SDS011;64089;51.478;5.692;2023-04-06T10:59:56;11.35;;;4.95;;
42832;SDS011;64089;51.478;5.692;2023-04-06T11:02:22;11.85;;;4.70;;
42832;SDS011;64089;51.478;5.692;2023-04-06T11:04:54;7.65;;;4.60;;
42832;SDS011;64089;51.478;5.692;2023-04-06T11:07:28;9.32;;;4.18;;
42832;SDS011;64089;51.478;5.692;2023-04-06T11:09:55;14.93;;;4.45;;
42832;SDS011;64089;51.478;5.692;2023-04-06T11:12:25;10.25;;;5.32;;
42832;SDS011;64089;51.478;5.692;2023-04-06T11:14:56;11.53;;;4.93;;
42832;SDS011;64089;51.478;5.692;2023-04-06T11:17:29;9.68;;;4.47;;
42832;SDS011;64089;51.478;5.692;2023-04-06T11:19:58;32.55;;;16.02;;
42832;SDS011;64089;51.478;5.692;2023-04-06T11:22:25;50.03;;;22.30;;
42832;SDS011;64089;51.478;5.692;2023-04-06T11:24:51;32.80;;;15.07;;
42832;SDS011;64089;51.478;5.692;2023-04-06T11:27:18;44.35;;;17.30;;
42832;SDS011;64089;51.478;5.692;2023-04-06T11:29:45;9.40;;;4.35;;
42832;SDS011;64089;51.478;5.692;2023-04-06T11:32:11;8.02;;;3.25;;
42832;SDS011;64089;51.478;5.692;2023-04-06T11:34:46;7.88;;;2.70;;
42832;SDS011;64089;51.478;5.692;2023-04-06T11:37:12;7.55;;;2.97;;
42832;SDS011;64089;51.478;5.692;2023-04-06T11:39:48;5.28;;;3.10;;
42832;SDS011;64089;51.478;5.692;2023-04-06T11:42:25;7.70;;;2.83;;
42832;SDS011;64089;51.478;5.692;2023-04-06T11:44:53;5.18;;;2.88;;
42832;SDS011;64089;51.478;5.692;2023-04-06T11:47:20;4.78;;;2.85;;
42832;SDS011;64089;51.478;5.692;2023-04-06T11:49:56;5.65;;;3.55;;
42832;SDS011;64089;51.478;5.692;2023-04-06T11:52:30;11.20;;;3.45;;
42832;SDS011;64089;51.478;5.692;2023-04-06T11:54:56;10.45;;;3.67;;
42832;SDS011;64089;51.478;5.692;2023-04-06T11:57:22;10.60;;;4.13;;
42832;SDS011;64089;51.478;5.692;2023-04-06T11:59:51;7.78;;;3.92;;
42832;SDS011;64089;51.478;5.692;2023-04-06T12:02:17;8.05;;;4.00;;
42832;SDS011;64089;51.478;5.692;2023-04-06T12:04:43;9.35;;;4.22;;
42832;SDS011;64089;51.478;5.692;2023-04-06T12:07:09;6.00;;;3.65;;
42832;SDS011;64089;51.478;5.692;2023-04-06T12:09:34;9.55;;;4.60;;
42832;SDS011;64089;51.478;5.692;2023-04-06T12:12:01;9.68;;;4.03;;
42832;SDS011;64089;51.478;5.692;2023-04-06T12:14:28;6.95;;;3.55;;
42832;SDS011;64089;51.478;5.692;2023-04-06T12:16:55;8.35;;;4.05;;
42832;SDS011;64089;51.478;5.692;2023-04-06T12:19:22;6.95;;;3.65;;
42832;SDS011;64089;51.478;5.692;2023-04-06T12:21:50;8.10;;;4.13;;
42832;SDS011;64089;51.478;5.692;2023-04-06T12:24:19;9.93;;;4.35;;
42832;SDS011;64089;51.478;5.692;2023-04-06T12:26:45;6.90;;;3.75;;
42832;SDS011;64089;51.478;5.692;2023-04-06T12:29:10;8.23;;;4.50;;
42832;SDS011;64089;51.478;5.692;2023-04-06T12:31:38;10.57;;;4.50;;
42832;SDS011;64089;51.478;5.692;2023-04-06T12:34:05;7.88;;;4.53;;
42832;SDS011;64089;51.478;5.692;2023-04-06T12:36:31;10.25;;;5.50;;
42832;SDS011;64089;51.478;5.692;2023-04-06T12:38:57;8.60;;;4.38;;
42832;SDS011;64089;51.478;5.692;2023-04-06T12:41:23;10.25;;;4.70;;
42832;SDS011;64089;51.478;5.692;2023-04-06T12:43:49;8.93;;;4.85;;
42832;SDS011;64089;51.478;5.692;2023-04-06T12:46:15;11.23;;;4.15;;
42832;SDS011;64089;51.478;5.692;2023-04-06T12:48:41;12.27;;;5.65;;
42832;SDS011;64089;51.478;5.692;2023-04-06T12:51:07;11.25;;;4.55;;
42832;SDS011;64089;51.478;5.692;2023-04-06T12:53:33;7.38;;;4.25;;
42832;SDS011;64089;51.478;5.692;2023-04-06T12:56:01;11.93;;;4.53;;
42832;SDS011;64089;51.478;5.692;2023-04-06T12:58:27;9.68;;;4.32;;
42832;SDS011;64089;51.478;5.692;2023-04-06T13:00:53;10.25;;;5.22;;
42832;SDS011;64089;51.478;5.692;2023-04-06T13:03:20;9.73;;;4.93;;
42832;SDS011;64089;51.478;5.692;2023-04-06T13:05:47;11.10;;;5.60;;
42832;SDS011;64089;51.478;5.692;2023-04-06T13:08:14;11.35;;;5.28;;
42832;SDS011;64089;51.478;5.692;2023-04-06T13:10:44;9.65;;;4.70;;
42832;SDS011;64089;51.478;5.692;2023-04-06T13:13:14;10.38;;;4.75;;
42832;SDS011;64089;51.478;5.692;2023-04-06T13:15:40;19.95;;;5.43;;
42832;SDS011;64089;51.478;5.692;2023-04-06T13:18:06;15.35;;;5.93;;
42832;SDS011;64089;51.478;5.692;2023-04-06T13:20:32;12.15;;;5.40;;
42832;SDS011;64089;51.478;5.692;2023-04-06T13:22:58;14.15;;;6.07;;
42832;SDS011;64089;51.478;5.692;2023-04-06T13:25:23;13.38;;;5.68;;
42832;SDS011;64089;51.478;5.692;2023-04-06T13:27:49;12.45;;;5.35;;
42832;SDS011;64089;51.478;5.692;2023-04-06T13:30:15;9.82;;;5.03;;
42832;SDS011;64089;51.478;5.692;2023-04-06T13:32:41;14.98;;;6.28;;
42832;SDS011;64089;51.478;5.692;2023-04-06T13:35:07;8.65;;;5.13;;
42832;SDS011;64089;51.478;5.692;2023-04-06T13:37:33;12.02;;;6.18;;
42832;SDS011;64089;51.478;5.692;2023-04-06T13:39:59;11.23;;;4.93;;
42832;SDS011;64089;51.478;5.692;2023-04-06T13:42:25;10.15;;;5.15;;
42832;SDS011;64089;51.478;5.692;2023-04-06T13:44:51;11.93;;;6.00;;
42832;SDS011;64089;51.478;5.692;2023-04-06T13:47:18;13.63;;;5.03;;
42832;SDS011;64089;51.478;5.692;2023-04-06T13:49:45;9.30;;;5.03;;
42832;SDS011;64089;51.478;5.692;2023-04-06T13:52:11;9.18;;;4.95;;
42832;SDS011;64089;51.478;5.692;2023-04-06T13:54:37;12.35;;;4.95;;
42832;SDS011;64089;51.478;5.692;2023-04-06T13:57:03;10.27;;;5.22;;
42832;SDS011;64089;51.478;5.692;2023-04-06T13:59:33;14.95;;;6.20;;
42832;SDS011;64089;51.478;5.692;2023-04-06T14:02:02;14.48;;;5.78;;
42832;SDS011;64089;51.478;5.692;2023-04-06T14:04:28;12.73;;;5.85;;
42832;SDS011;64089;51.478;5.692;2023-04-06T14:06:54;14.32;;;6.20;;
42832;SDS011;64089;51.478;5.692;2023-04-06T14:09:20;12.77;;;5.75;;
42832;SDS011;64089;51.478;5.692;2023-04-06T14:11:45;12.27;;;5.40;;
42832;SDS011;64089;51.478;5.692;2023-04-06T14:14:11;14.07;;;5.88;;
42832;SDS011;64089;51.478;5.692;2023-04-06T14:16:37;17.80;;;6.10;;
42832;SDS011;64089;51.478;5.692;2023-04-06T14:19:03;15.30;;;7.05;;
42832;SDS011;64089;51.478;5.692;2023-04-06T14:21:29;13.70;;;6.10;;
42832;SDS011;64089;51.478;5.692;2023-04-06T14:23:54;15.60;;;6.47;;
42832;SDS011;64089;51.478;5.692;2023-04-06T14:26:20;12.15;;;6.30;;
42832;SDS011;64089;51.478;5.692;2023-04-06T14:28:46;14.57;;;6.32;;
42832;SDS011;64089;51.478;5.692;2023-04-06T14:31:12;13.48;;;6.53;;
42832;SDS011;64089;51.478;5.692;2023-04-06T14:33:40;13.52;;;5.90;;
42832;SDS011;64089;51.478;5.692;2023-04-06T14:36:06;14.88;;;5.18;;
42832;SDS011;64089;51.478;5.692;2023-04-06T14:38:32;12.18;;;5.22;;
42832;SDS011;64089;51.478;5.692;2023-04-06T14:40:58;13.27;;;4.72;;